Time;durP1;ratioP1;P1;durP2;ratioP2;P2;SDS_P1;SDS_P2;PMS_P1;PMS_P2;Temp;Humidity;BMP_temperature;BMP_pressure;BME280_temperature;BME280_humidity;BME280_pressure;Samples;Min_cycle;Max_cycle;Signal;HPM_P1;HPM_P2
2021/09/13 00:01:32;;;;;;;12.30;7.00;;;17.30;90.10;;;;;;5074550;28;20031;-74
2021/09/13 00:03:58;;;;;;;12.55;6.63;;;17.30;90.50;;;;;;5074239;28;20483;-71
2021/09/13 00:06:23;;;;;;;16.23;7.03;;;17.30;90.10;;;;;;5074195;28;20099;-73
2021/09/13 00:08:49;;;;;;;13.20;6.80;;;17.20;90.00;;;;;;5073643;28;20045;-73
2021/09/13 00:11:15;;;;;;;13.90;7.60;;;17.20;90.00;;;;;;5074365;28;20021;-70
2021/09/13 00:13:41;;;;;;;17.67;9.15;;;17.20;89.80;;;;;;5074055;28;20016;-71
2021/09/13 00:16:06;;;;;;;16.77;9.10;;;17.20;90.50;;;;;;5074019;28;20126;-72
2021/09/13 00:18:32;;;;;;;15.48;7.50;;;17.10;91.00;;;;;;5074210;28;20470;-73
2021/09/13 00:20:58;;;;;;;15.18;8.90;;;17.00;91.40;;;;;;5073872;28;20024;-72
2021/09/13 00:23:24;;;;;;;15.98;8.73;;;16.90;91.50;;;;;;5074111;28;20044;-72
2021/09/13 00:25:50;;;;;;;17.33;8.60;;;16.80;91.70;;;;;;5073826;28;20498;-73
2021/09/13 00:28:16;;;;;;;17.02;8.45;;;16.90;91.30;;;;;;5073717;28;20029;-72
2021/09/13 00:30:41;;;;;;;12.60;6.80;;;16.90;91.20;;;;;;5073682;28;20031;-72
2021/09/13 00:33:07;;;;;;;16.08;7.22;;;17.00;90.90;;;;;;5073691;28;20024;-71
2021/09/13 00:35:33;;;;;;;15.48;7.97;;;17.00;90.90;;;;;;5073889;28;20032;-71
2021/09/13 00:37:59;;;;;;;17.20;8.15;;;16.90;90.30;;;;;;5072860;28;20028;-72
2021/09/13 00:40:24;;;;;;;16.42;7.68;;;16.80;90.60;;;;;;5073680;28;20020;-71
2021/09/13 00:42:50;;;;;;;21.70;8.23;;;16.70;91.10;;;;;;5073478;28;20078;-71
2021/09/13 00:45:16;;;;;;;16.17;7.82;;;16.50;91.50;;;;;;5073531;28;20017;-72
2021/09/13 00:47:41;;;;;;;18.98;9.38;;;16.60;91.00;;;;;;5073513;28;20060;-73
2021/09/13 00:50:08;;;;;;;19.25;9.20;;;16.60;91.10;;;;;;5073653;28;20115;-73
2021/09/13 00:52:34;;;;;;;16.92;8.18;;;16.50;91.30;;;;;;5073933;28;20032;-73
2021/09/13 00:55:01;;;;;;;14.57;7.60;;;16.50;90.90;;;;;;5073361;28;20066;-70
2021/09/13 00:57:28;;;;;;;20.38;8.75;;;16.50;90.90;;;;;;5073380;28;20020;-72
2021/09/13 00:59:53;;;;;;;15.93;7.53;;;16.50;90.90;;;;;;5073201;28;20028;-72
2021/09/13 01:02:20;;;;;;;11.85;6.18;;;16.30;91.40;;;;;;5073316;28;20020;-71
2021/09/13 01:04:45;;;;;;;11.80;5.88;;;16.30;91.20;;;;;;5073526;28;20024;-72
2021/09/13 01:07:12;;;;;;;12.25;6.65;;;16.50;91.30;;;;;;5073509;28;20114;-73
2021/09/13 01:09:38;;;;;;;10.27;5.68;;;16.50;91.40;;;;;;5073465;28;20056;-70
2021/09/13 01:12:05;;;;;;;10.15;5.65;;;16.50;91.50;;;;;;5073202;28;20029;-70
2021/09/13 01:14:39;;;;;;;11.70;6.25;;;16.50;92.20;;;;;;5073131;28;20501;-71
2021/09/13 01:17:06;;;;;;;10.48;5.13;;;16.40;91.50;;;;;;5073449;28;20528;-74
2021/09/13 01:19:32;;;;;;;8.82;4.88;;;16.40;91.50;;;;;;5073129;28;20478;-72
2021/09/13 01:22:00;;;;;;;7.72;4.60;;;16.30;91.70;;;;;;5073369;28;20103;-71
2021/09/13 01:24:28;;;;;;;12.52;5.45;;;16.30;91.80;;;;;;5073029;28;20021;-72
2021/09/13 01:27:01;;;;;;;10.05;5.93;;;16.40;91.80;;;;;;5073083;28;20035;-73
2021/09/13 01:29:27;;;;;;;9.05;5.35;;;16.40;92.00;;;;;;5073292;28;20029;-72
2021/09/13 01:31:53;;;;;;;9.55;5.60;;;16.30;92.00;;;;;;5073279;28;20055;-71
2021/09/13 01:34:19;;;;;;;9.90;5.05;;;16.30;92.10;;;;;;5072958;28;20386;-72
2021/09/13 01:36:45;;;;;;;11.38;5.43;;;16.20;92.40;;;;;;5073476;28;20474;-71
2021/09/13 01:39:10;;;;;;;12.50;5.65;;;16.20;92.50;;;;;;5072951;28;20410;-71
2021/09/13 01:41:36;;;;;;;10.40;5.82;;;16.20;92.10;;;;;;5073158;28;20031;-72
2021/09/13 01:44:02;;;;;;;13.18;6.35;;;16.20;92.20;;;;;;5072861;28;20151;-72
2021/09/13 01:46:27;;;;;;;10.20;5.57;;;16.20;92.60;;;;;;5072837;28;20103;-72
2021/09/13 01:48:53;;;;;;;9.98;5.20;;;16.10;92.70;;;;;;5072748;28;20107;-72
2021/09/13 01:51:19;;;;;;;12.57;5.93;;;16.10;92.70;;;;;;5076441;28;20025;-71
2021/09/13 01:53:46;;;;;;;10.93;6.40;;;16.20;92.50;;;;;;5077006;28;20021;-70
2021/09/13 01:56:12;;;;;;;11.00;5.75;;;16.20;92.60;;;;;;5076980;28;20050;-73
2021/09/13 01:58:37;;;;;;;10.82;6.03;;;16.20;92.60;;;;;;5076589;28;20020;-71
2021/09/13 02:01:04;;;;;;;11.55;6.40;;;16.10;92.40;;;;;;5077147;28;20024;-73
2021/09/13 02:03:29;;;;;;;10.45;6.22;;;16.00;92.70;;;;;;5076867;28;20029;-74
2021/09/13 02:05:55;;;;;;;11.43;6.30;;;16.10;92.50;;;;;;5076471;28;20032;-72
2021/09/13 02:08:20;;;;;;;10.15;6.35;;;16.10;92.60;;;;;;5076181;28;20456;-71
2021/09/13 02:10:46;;;;;;;10.80;6.38;;;16.10;92.30;;;;;;5076386;28;20024;-70
2021/09/13 02:13:12;;;;;;;13.07;7.15;;;16.00;92.60;;;;;;5076598;28;20017;-71
2021/09/13 02:15:37;;;;;;;10.50;6.00;;;16.00;92.50;;;;;;5076851;28;20024;-71
2021/09/13 02:18:03;;;;;;;10.02;6.20;;;16.00;92.60;;;;;;5076275;28;20031;-70
2021/09/13 02:20:29;;;;;;;10.55;6.28;;;15.90;92.60;;;;;;5076478;28;20025;-72
2021/09/13 02:22:54;;;;;;;10.63;5.78;;;15.90;92.80;;;;;;5076177;28;20023;-73
2021/09/13 02:25:20;;;;;;;8.82;5.43;;;15.90;92.80;;;;;;5076384;28;20021;-72
2021/09/13 02:27:46;;;;;;;9.52;5.43;;;15.90;93.20;;;;;;5076329;28;20027;-73
2021/09/13 02:30:11;;;;;;;8.70;4.82;;;16.00;92.60;;;;;;5076226;28;20387;-72
2021/09/13 02:32:37;;;;;;;7.22;4.15;;;16.10;92.30;;;;;;5075935;28;20075;-72
2021/09/13 02:35:07;;;;;;;8.65;4.82;;;16.10;92.00;;;;;;5075954;28;20021;-72
2021/09/13 02:37:36;;;;;;;9.68;5.95;;;16.10;91.80;;;;;;5076233;28;20086;-71
2021/09/13 02:40:04;;;;;;;9.52;5.18;;;15.90;92.20;;;;;;5076422;28;20075;-73
2021/09/13 02:42:30;;;;;;;8.80;5.07;;;15.80;92.50;;;;;;5076119;28;20013;-72
2021/09/13 02:44:56;;;;;;;9.07;4.65;;;15.90;92.10;;;;;;5075813;28;20032;-71
2021/09/13 02:47:22;;;;;;;8.55;5.18;;;16.10;91.70;;;;;;5075990;28;20028;-72
2021/09/13 02:49:47;;;;;;;7.95;4.47;;;16.00;91.40;;;;;;5075665;28;20032;-71
2021/09/13 02:52:13;;;;;;;10.32;6.00;;;16.00;91.60;;;;;;5075673;28;20028;-73
2021/09/13 02:54:39;;;;;;;11.45;6.65;;;16.10;91.80;;;;;;5075672;28;20108;-74
2021/09/13 02:57:05;;;;;;;10.43;6.65;;;16.00;92.40;;;;;;5075849;28;20497;-70
2021/09/13 02:59:30;;;;;;;9.23;6.07;;;15.90;92.90;;;;;;5075434;28;20118;-73
2021/09/13 03:01:56;;;;;;;7.57;5.32;;;15.80;92.90;;;;;;5074988;28;20021;-73
2021/09/13 03:04:21;;;;;;;9.10;6.13;;;15.80;92.60;;;;;;5075437;28;20033;-74
2021/09/13 03:06:47;;;;;;;10.80;6.25;;;15.80;92.70;;;;;;5075504;28;20112;-72
2021/09/13 03:09:13;;;;;;;9.52;6.18;;;15.70;92.50;;;;;;5075284;28;20039;-71
2021/09/13 03:11:39;;;;;;;10.75;6.15;;;15.70;92.60;;;;;;5075367;28;20021;-73
2021/09/13 03:14:06;;;;;;;10.15;5.93;;;15.60;92.90;;;;;;5075145;28;20076;-74
2021/09/13 03:16:31;;;;;;;17.95;6.97;;;15.60;92.60;;;;;;5075759;28;20020;-72
2021/09/13 03:18:57;;;;;;;10.40;6.22;;;15.60;93.00;;;;;;5075457;28;20474;-72
2021/09/13 03:21:22;;;;;;;10.40;6.15;;;15.50;93.20;;;;;;5075156;28;20104;-71
2021/09/13 03:23:48;;;;;;;9.98;5.90;;;15.50;93.30;;;;;;5075059;28;20035;-72
2021/09/13 03:26:14;;;;;;;9.55;6.20;;;15.50;92.70;;;;;;5075042;28;20024;-71
2021/09/13 03:28:39;;;;;;;8.98;5.82;;;15.60;92.20;;;;;;5074906;28;20393;-73
2021/09/13 03:31:05;;;;;;;9.90;6.07;;;15.60;92.40;;;;;;5075197;28;20020;-73
2021/09/13 03:33:32;;;;;;;9.70;5.70;;;15.50;92.50;;;;;;5075119;28;20028;-72
2021/09/13 03:35:58;;;;;;;9.77;5.75;;;15.50;91.90;;;;;;5073561;28;20048;-73
2021/09/13 03:38:24;;;;;;;8.75;5.07;;;15.50;92.20;;;;;;5074803;28;20067;-70
2021/09/13 03:40:49;;;;;;;8.35;5.00;;;15.50;92.20;;;;;;5075058;28;20578;-73
2021/09/13 03:43:15;;;;;;;10.52;5.50;;;15.50;92.30;;;;;;5074710;28;20050;-73
2021/09/13 03:45:41;;;;;;;9.70;5.53;;;15.60;91.80;;;;;;5074926;28;20383;-72
2021/09/13 03:48:07;;;;;;;8.82;5.47;;;15.60;91.50;;;;;;5074464;28;20402;-71
2021/09/13 03:50:33;;;;;;;7.20;4.40;;;15.60;91.50;;;;;;5074520;28;20016;-71
2021/09/13 03:52:59;;;;;;;8.43;5.25;;;15.50;91.80;;;;;;5074462;28;20143;-71
2021/09/13 03:55:24;;;;;;;7.68;5.28;;;15.60;91.80;;;;;;5074657;28;20028;-70
2021/09/13 03:57:50;;;;;;;7.80;4.70;;;15.60;91.80;;;;;;5074382;28;20158;-73
2021/09/13 04:00:16;;;;;;;7.50;4.50;;;15.40;91.70;;;;;;5074458;28;20032;-73
2021/09/13 04:02:45;;;;;;;8.68;5.32;;;15.30;92.50;;;;;;5074536;28;20033;-73
2021/09/13 04:05:19;;;;;;;8.05;4.35;;;15.30;92.60;;;;;;5074498;28;20081;-74
2021/09/13 04:10:24;;;;;;;8.38;4.68;;;15.40;92.00;;;;;;5074083;28;20401;-74
2021/09/13 04:12:49;;;;;;;6.93;4.43;;;15.50;92.20;;;;;;5073954;28;20025;-72
2021/09/13 04:15:15;;;;;;;8.35;4.35;;;15.40;92.40;;;;;;5074268;28;20066;-71
2021/09/13 04:17:41;;;;;;;8.52;5.05;;;15.50;92.00;;;;;;5073974;28;20099;-70
2021/09/13 04:20:08;;;;;;;8.57;5.63;;;15.40;91.90;;;;;;5073906;28;20041;-71
2021/09/13 04:22:34;;;;;;;7.53;4.28;;;15.40;92.00;;;;;;5073840;28;20524;-71
2021/09/13 04:25:00;;;;;;;7.38;4.55;;;15.30;92.20;;;;;;5073884;28;20032;-70
2021/09/13 04:27:27;;;;;;;6.95;4.28;;;15.40;92.20;;;;;;5073801;28;20012;-72
2021/09/13 04:29:53;;;;;;;8.93;4.95;;;15.40;92.50;;;;;;5073702;28;20450;-73
2021/09/13 04:32:19;;;;;;;6.50;4.07;;;15.40;92.90;;;;;;5074020;28;20048;-73
2021/09/13 04:34:45;;;;;;;8.05;4.60;;;15.40;92.50;;;;;;5073668;28;20070;-73
2021/09/13 04:37:10;;;;;;;7.28;4.18;;;15.50;92.50;;;;;;5073671;28;20017;-72
2021/09/13 04:39:36;;;;;;;7.10;4.13;;;15.50;92.20;;;;;;5073857;28;20440;-71
2021/09/13 04:42:02;;;;;;;7.30;4.03;;;15.50;92.30;;;;;;5073836;28;20486;-71
2021/09/13 04:44:28;;;;;;;6.88;4.85;;;15.40;92.20;;;;;;5073556;28;20070;-72
2021/09/13 04:46:53;;;;;;;7.97;4.70;;;15.40;93.00;;;;;;5073506;28;20024;-72
2021/09/13 04:49:21;;;;;;;7.75;4.45;;;15.30;92.70;;;;;;5073409;28;20397;-71
2021/09/13 04:51:46;;;;;;;8.93;3.92;;;15.30;92.50;;;;;;5073708;28;20104;-73
2021/09/13 04:54:12;;;;;;;8.70;4.72;;;15.30;92.60;;;;;;5073671;28;20067;-69
2021/09/13 04:56:38;;;;;;;6.97;4.40;;;15.30;93.10;;;;;;5073904;28;20044;-73
2021/09/13 04:59:03;;;;;;;7.68;4.15;;;15.20;93.10;;;;;;5073429;28;20032;-71
2021/09/13 05:01:29;;;;;;;7.10;4.35;;;15.20;93.40;;;;;;5073325;28;20098;-71
2021/09/13 05:03:55;;;;;;;8.27;4.20;;;15.20;93.60;;;;;;5073578;28;20103;-70
2021/09/13 05:06:20;;;;;;;7.50;4.47;;;15.20;93.50;;;;;;5073788;28;20028;-72
2021/09/13 05:08:46;;;;;;;7.88;4.10;;;15.30;93.50;;;;;;5072739;28;20520;-73
2021/09/13 05:11:12;;;;;;;9.95;4.35;;;15.30;93.40;;;;;;5073213;28;20070;-72
2021/09/13 05:13:37;;;;;;;8.35;4.40;;;15.40;92.80;;;;;;5073401;28;20024;-71
2021/09/13 05:16:04;;;;;;;6.13;4.30;;;15.40;93.10;;;;;;5073119;28;20024;-72
2021/09/13 05:18:30;;;;;;;7.60;4.22;;;15.30;92.90;;;;;;5073131;28;20442;-74
2021/09/13 05:20:55;;;;;;;6.85;3.88;;;15.30;93.10;;;;;;5073127;28;20112;-73
2021/09/13 05:23:21;;;;;;;6.88;4.10;;;15.40;93.10;;;;;;5073304;28;20028;-71
2021/09/13 05:25:47;;;;;;;6.40;4.30;;;15.30;93.10;;;;;;5072496;28;20074;-72
2021/09/13 05:28:12;;;;;;;7.57;4.20;;;15.20;93.80;;;;;;5073050;28;20032;-71
2021/09/13 05:30:38;;;;;;;7.30;3.95;;;15.30;93.40;;;;;;5072971;28;20020;-71
2021/09/13 05:33:04;;;;;;;5.55;3.50;;;15.10;93.50;;;;;;5072930;28;20023;-73
2021/09/13 05:35:30;;;;;;;5.90;4.07;;;15.10;94.00;;;;;;5072926;28;20054;-71
2021/09/13 05:37:56;;;;;;;6.25;3.95;;;15.20;94.00;;;;;;5072928;28;20092;-73
2021/09/13 05:40:21;;;;;;;7.85;4.10;;;15.30;93.80;;;;;;5072907;28;20125;-71
2021/09/13 05:42:47;;;;;;;5.65;3.60;;;15.40;93.40;;;;;;5072855;28;20044;-72
2021/09/13 05:45:13;;;;;;;11.00;4.57;;;15.30;93.20;;;;;;5072714;28;20029;-72
2021/09/13 05:47:39;;;;;;;7.88;4.32;;;15.20;93.50;;;;;;5072745;28;20024;-72
2021/09/13 05:50:06;;;;;;;6.78;4.18;;;15.30;93.60;;;;;;5072775;28;20371;-72
2021/09/13 05:52:32;;;;;;;6.80;4.40;;;15.20;93.70;;;;;;5073098;28;20390;-73
2021/09/13 05:54:57;;;;;;;8.32;4.15;;;15.20;93.40;;;;;;5073036;28;20043;-71
2021/09/13 05:57:23;;;;;;;6.05;3.80;;;15.10;93.90;;;;;;5072977;28;20049;-73
2021/09/13 05:59:49;;;;;;;7.32;4.22;;;15.20;93.90;;;;;;5072657;28;20491;-73
2021/09/13 06:02:16;;;;;;;6.25;4.35;;;15.20;93.90;;;;;;5072957;28;20024;-73
2021/09/13 06:04:43;;;;;;;6.20;4.15;;;15.30;93.70;;;;;;5072692;28;20025;-72
2021/09/13 06:07:09;;;;;;;7.13;3.90;;;15.30;93.50;;;;;;5072895;28;20041;-74
2021/09/13 06:09:35;;;;;;;6.13;4.05;;;15.20;93.60;;;;;;5072629;28;20028;-70
2021/09/13 06:12:01;;;;;;;7.40;4.03;;;15.20;93.60;;;;;;5072881;28;20386;-73
2021/09/13 06:14:27;;;;;;;7.30;4.20;;;15.30;93.30;;;;;;5072574;28;20028;-73
2021/09/13 06:16:52;;;;;;;5.80;3.53;;;15.30;93.40;;;;;;5072841;28;20017;-74
2021/09/13 06:19:18;;;;;;;7.68;3.70;;;15.30;93.50;;;;;;5072544;28;20031;-70
2021/09/13 06:21:43;;;;;;;6.55;3.40;;;15.40;93.30;;;;;;5072522;28;20104;-72
2021/09/13 06:24:09;;;;;;;7.25;3.92;;;15.30;93.40;;;;;;5072480;28;20032;-72
2021/09/13 06:26:35;;;;;;;6.93;3.17;;;15.50;93.20;;;;;;5072494;28;20398;-70
2021/09/13 06:29:01;;;;;;;6.93;3.58;;;15.50;93.10;;;;;;5072411;28;20094;-73
2021/09/13 06:31:26;;;;;;;7.40;3.85;;;15.50;93.40;;;;;;5072417;28;20032;-72
2021/09/13 06:33:52;;;;;;;11.63;4.78;;;15.50;93.40;;;;;;5072412;28;20047;-73
2021/09/13 06:36:18;;;;;;;6.93;3.78;;;15.40;93.60;;;;;;5072668;28;20062;-74
2021/09/13 06:38:45;;;;;;;6.53;3.85;;;15.40;93.70;;;;;;5076463;28;20057;-73
2021/09/13 06:41:11;;;;;;;9.43;4.40;;;15.30;93.90;;;;;;5074629;28;20056;-72
2021/09/13 06:43:37;;;;;;;9.45;4.45;;;15.40;93.90;;;;;;5075846;28;20394;-73
2021/09/13 06:46:33;;;;;;;7.65;3.67;;;15.40;94.00;;;;;;5076083;28;20017;-71
2021/09/13 06:48:49;;;;;;;7.80;3.83;;;15.50;93.80;;;;;;5075149;28;20040;-71
2021/09/13 06:51:16;;;;;;;11.45;4.45;;;15.60;93.60;;;;;;5076275;28;20040;-73
2021/09/13 06:53:41;;;;;;;7.20;3.88;;;15.60;93.90;;;;;;5070761;28;20025;-77
2021/09/13 06:56:07;;;;;;;7.93;3.70;;;15.60;94.10;;;;;;5055087;28;20028;-78
2021/09/13 06:58:35;;;;;;;7.55;4.35;;;15.70;93.80;;;;;;5074164;28;20035;-82
2021/09/13 07:01:01;;;;;;;8.30;3.58;;;15.70;94.20;;;;;;5066416;28;20033;-79
2021/09/13 07:03:26;;;;;;;7.90;3.85;;;15.80;93.90;;;;;;5056229;28;20039;-84
2021/09/13 07:05:52;;;;;;;7.45;3.63;;;15.80;93.80;;;;;;5055306;28;20024;-72
2021/09/13 07:08:18;;;;;;;7.43;3.80;;;15.80;94.00;;;;;;5070855;28;20053;-73
2021/09/13 07:10:44;;;;;;;10.75;3.70;;;15.80;94.10;;;;;;5075648;28;20025;-73
2021/09/13 07:13:10;;;;;;;8.52;4.00;;;15.90;94.30;;;;;;5074808;28;20095;-73
2021/09/13 07:15:35;;;;;;;7.53;3.80;;;15.90;94.40;;;;;;5075242;28;20055;-73
2021/09/13 07:18:01;;;;;;;5.75;3.60;;;16.00;94.40;;;;;;5061385;28;20112;-79
2021/09/13 07:20:27;;;;;;;9.70;4.10;;;16.10;94.10;;;;;;5055408;28;20036;-71
2021/09/13 07:22:53;;;;;;;7.85;4.10;;;16.10;94.30;;;;;;5056388;28;20071;-74
2021/09/13 07:25:18;;;;;;;7.47;4.13;;;16.20;94.30;;;;;;5057876;28;20028;-73
2021/09/13 07:27:44;;;;;;;8.68;4.40;;;16.20;94.60;;;;;;5055405;28;20041;-78
2021/09/13 07:30:11;;;;;;;8.18;4.50;;;16.20;94.80;;;;;;5053606;28;20102;-79
2021/09/13 07:32:37;;;;;;;12.00;5.57;;;16.30;94.50;;;;;;5054889;28;20036;-80
2021/09/13 07:35:06;;;;;;;8.32;5.32;;;16.30;94.60;;;;;;5070579;28;20105;-77
2021/09/13 07:37:32;;;;;;;9.18;5.82;;;16.30;95.10;;;;;;5074829;28;20048;-78
2021/09/13 07:39:58;;;;;;;8.05;5.20;;;16.30;94.90;;;;;;5060712;28;20407;-75
2021/09/13 07:42:23;;;;;;;8.65;5.80;;;16.40;95.20;;;;;;5056574;28;20041;-77
2021/09/13 07:44:50;;;;;;;11.73;6.53;;;16.50;94.60;;;;;;5068168;28;20036;-76
2021/09/13 07:47:18;;;;;;;10.15;6.38;;;16.70;94.40;;;;;;5054299;28;20078;-76
2021/09/13 07:49:43;;;;;;;9.98;6.18;;;16.70;94.40;;;;;;5056433;28;20486;-82
2021/09/13 07:52:09;;;;;;;9.43;7.07;;;16.70;94.30;;;;;;5074511;28;20020;-84
2021/09/13 07:54:35;;;;;;;10.38;7.18;;;16.80;94.40;;;;;;5067085;28;20074;-81
2021/09/13 07:57:01;;;;;;;13.25;8.75;;;17.00;93.90;;;;;;5053221;28;20032;-81
2021/09/13 07:59:27;;;;;;;10.98;8.25;;;17.00;94.40;;;;;;5058892;28;20032;-80
2021/09/13 08:01:52;;;;;;;14.68;9.45;;;17.20;94.00;;;;;;5071122;28;20028;-73
2021/09/13 08:04:18;;;;;;;12.20;7.88;;;17.50;93.60;;;;;;5060564;28;20029;-73
2021/09/13 08:06:43;;;;;;;10.20;7.28;;;17.80;93.80;;;;;;5074344;28;20543;-73
2021/09/13 08:09:09;;;;;;;11.93;8.05;;;18.20;92.60;;;;;;5059189;28;20411;-75
2021/09/13 08:11:35;;;;;;;11.02;7.78;;;18.40;91.70;;;;;;5054144;28;20028;-73
2021/09/13 08:14:01;;;;;;;11.77;7.45;;;18.30;92.10;;;;;;5055141;28;20110;-74
2021/09/13 08:16:27;;;;;;;13.13;7.60;;;18.50;92.20;;;;;;5066641;28;20028;-73
2021/09/13 08:18:52;;;;;;;14.25;7.65;;;18.60;91.70;;;;;;5054010;28;20029;-73
2021/09/13 08:21:21;;;;;;;12.57;7.20;;;18.70;91.40;;;;;;5054292;28;20055;-73
2021/09/13 08:23:48;;;;;;;14.95;8.00;;;19.00;90.90;;;;;;5052672;28;20441;-74
2021/09/13 08:26:16;;;;;;;10.38;6.57;;;19.20;90.50;;;;;;5054348;28;20139;-73
2021/09/13 08:28:42;;;;;;;11.15;6.72;;;19.70;89.70;;;;;;5054438;28;20021;-74
2021/09/13 08:31:08;;;;;;;9.20;6.57;;;20.30;87.00;;;;;;5053828;28;20100;-75
2021/09/13 08:33:34;;;;;;;11.38;7.03;;;20.70;85.00;;;;;;5053854;28;20124;-74
2021/09/13 08:36:00;;;;;;;10.45;6.43;;;21.40;82.90;;;;;;5052513;28;20075;-74
2021/09/13 08:38:26;;;;;;;8.95;5.90;;;21.60;81.20;;;;;;5055063;28;20027;-80
2021/09/13 08:40:52;;;;;;;10.52;6.38;;;21.50;81.40;;;;;;5053688;28;20111;-85
2021/09/13 08:43:19;;;;;;;9.48;5.95;;;21.80;81.00;;;;;;5052300;28;20031;-83
2021/09/13 08:45:50;;;;;;;9.20;6.30;;;22.30;78.90;;;;;;5062816;28;20040;-82
2021/09/13 08:53:42;;;;;;;8.82;5.82;;;22.70;77.40;;;;;;5061710;28;20027;-81
2021/09/13 08:56:13;;;;;;;11.63;6.32;;;23.00;75.90;;;;;;5073387;28;20025;-85
2021/09/13 08:58:40;;;;;;;10.43;5.95;;;23.70;73.10;;;;;;5065363;28;20025;-78
2021/09/13 09:01:06;;;;;;;11.20;5.82;;;24.10;71.10;;;;;;5052909;28;20021;-81
2021/09/13 09:03:35;;;;;;;10.30;6.18;;;24.30;70.50;;;;;;5053288;28;20100;-79
2021/09/13 09:06:02;;;;;;;10.13;5.82;;;24.40;69.70;;;;;;5053311;28;20076;-80
2021/09/13 09:08:30;;;;;;;10.00;5.82;;;24.80;69.40;;;;;;5057694;28;20067;-82
2021/09/13 09:11:01;;;;;;;7.82;5.38;;;25.20;67.20;;;;;;5071956;28;20062;-81
2021/09/13 09:13:38;;;;;;;10.35;5.80;;;25.40;66.80;;;;;;5067458;28;20021;-82
2021/09/13 09:16:05;;;;;;;6.43;4.88;;;25.90;65.90;;;;;;5053433;28;20025;-82
2021/09/13 09:18:45;;;;;;;13.45;6.45;;;26.00;64.20;;;;;;5061728;28;20056;-81
2021/09/13 09:21:25;;;;;;;9.50;5.45;;;26.00;65.30;;;;;;5073332;28;20174;-84
2021/09/13 09:23:57;;;;;;;;;;;26.40;63.40;;;;;;5063528;28;20036;-85
2021/09/13 09:26:26;;;;;;;12.35;5.80;;;26.70;62.50;;;;;;5051418;28;19905;-89
2021/09/13 09:28:52;;;;;;;9.07;5.65;;;26.80;61.60;;;;;;5051965;28;20494;-82
2021/09/13 09:31:41;;;;;;;8.88;5.20;;;26.50;61.90;;;;;;5053006;28;20051;-79
2021/09/13 09:34:21;;;;;;;9.27;5.13;;;26.20;63.40;;;;;;5055867;28;20070;-85
2021/09/13 09:37:03;;;;;;;8.50;5.15;;;26.20;62.40;;;;;;5053143;28;20033;-87
2021/09/13 09:39:44;;;;;;;7.97;5.40;;;25.90;64.90;;;;;;5051216;28;20074;-85
2021/09/13 09:42:12;;;;;;;7.93;5.03;;;26.00;64.80;;;;;;5052891;28;20036;-80
2021/09/13 09:44:42;;;;;;;7.43;5.28;;;26.20;65.60;;;;;;5059509;28;20540;-83
2021/09/13 09:47:11;;;;;;;5.63;4.40;;;26.60;62.90;;;;;;5072970;28;20028;-82
2021/09/13 09:49:45;;;;;;;8.32;5.30;;;26.30;62.50;;;;;;5073004;28;20024;-80
2021/09/13 09:52:11;;;;;;;11.82;5.40;;;25.70;64.60;;;;;;5071619;28;20054;-84
2021/09/13 09:54:37;;;;;;;8.70;5.35;;;24.80;67.60;;;;;;5072880;28;20031;-80
2021/09/13 09:57:08;;;;;;;8.60;5.60;;;24.40;69.50;;;;;;5056659;28;20037;-81
2021/09/13 09:59:36;;;;;;;9.63;5.38;;;24.50;69.80;;;;;;5052620;28;20025;-80
2021/09/13 10:02:13;;;;;;;9.20;5.43;;;25.00;68.70;;;;;;5059892;28;20025;-83
2021/09/13 10:04:40;;;;;;;7.80;5.47;;;25.70;67.40;;;;;;5073023;28;20025;-85
2021/09/13 10:07:06;;;;;;;9.48;5.47;;;26.10;64.60;;;;;;5067540;28;20042;-80
2021/09/13 10:09:32;;;;;;;10.13;5.00;;;26.20;64.00;;;;;;5053301;28;20021;-82
2021/09/13 10:12:00;;;;;;;9.95;4.88;;;26.10;64.40;;;;;;5054186;28;20509;-77
2021/09/13 10:14:28;;;;;;;6.25;4.68;;;26.40;62.60;;;;;;5055144;28;20064;-79
2021/09/13 10:16:55;;;;;;;9.65;5.38;;;26.30;64.70;;;;;;5057878;28;20040;-79
2021/09/13 10:19:23;;;;;;;8.27;5.10;;;26.30;63.60;;;;;;5059698;28;20438;-82
2021/09/13 10:21:50;;;;;;;8.90;5.10;;;26.40;63.80;;;;;;5056258;28;20063;-76
2021/09/13 10:24:19;;;;;;;8.35;5.55;;;26.20;63.60;;;;;;5060916;28;20024;-78
2021/09/13 10:26:49;;;;;;;11.83;5.53;;;26.00;64.20;;;;;;5068022;28;20044;-77
2021/09/13 10:29:15;;;;;;;;;;;25.80;64.70;;;;;;5053521;28;20407;-74
2021/09/13 10:31:45;;;;;;;10.48;5.28;;;25.70;66.10;;;;;;5053711;28;19905;-73
2021/09/13 10:34:16;;;;;;;9.15;5.07;;;25.30;67.50;;;;;;5055823;28;20024;-73
2021/09/13 10:37:03;;;;;;;8.05;5.07;;;25.10;67.70;;;;;;5055797;28;20029;-74
2021/09/13 10:39:48;;;;;;;8.32;5.03;;;24.80;69.50;;;;;;5056196;28;20075;-73
2021/09/13 10:42:32;;;;;;;8.90;5.15;;;24.40;71.50;;;;;;5055910;28;20028;-73
2021/09/13 10:45:05;;;;;;;8.50;4.88;;;24.30;71.50;;;;;;5055868;28;20390;-76
2021/09/13 10:47:31;;;;;;;7.60;5.25;;;24.10;73.10;;;;;;5055850;28;20071;-73
2021/09/13 10:50:16;;;;;;;9.15;5.03;;;23.90;74.30;;;;;;5055719;28;20025;-76
2021/09/13 10:52:42;;;;;;;8.07;5.68;;;23.80;75.30;;;;;;5055735;28;20025;-75
2021/09/13 10:55:08;;;;;;;12.85;5.22;;;23.60;74.70;;;;;;5055613;28;20071;-75
2021/09/13 10:57:53;;;;;;;9.35;5.32;;;23.60;76.30;;;;;;5055893;28;20037;-73
2021/09/13 11:00:40;;;;;;;8.38;5.05;;;23.60;76.20;;;;;;5056049;28;20020;-75
2021/09/13 11:03:27;;;;;;;7.03;4.88;;;23.50;76.20;;;;;;5055538;28;20394;-74
2021/09/13 11:06:04;;;;;;;7.85;5.05;;;23.40;78.00;;;;;;5055356;28;20025;-76
2021/09/13 11:08:30;;;;;;;10.23;6.35;;;23.30;77.50;;;;;;5055320;28;20082;-72
2021/09/13 11:10:58;;;;;;;8.52;5.78;;;23.20;77.80;;;;;;5055369;28;20468;-76
2021/09/13 11:13:24;;;;;;;11.75;6.40;;;23.20;79.00;;;;;;5055296;28;20028;-75
2021/09/13 11:15:52;;;;;;;9.10;5.60;;;23.20;78.30;;;;;;5055320;28;20017;-73
2021/09/13 11:18:33;;;;;;;11.02;5.53;;;23.00;78.60;;;;;;5055454;28;20027;-74
2021/09/13 11:21:18;;;;;;;11.27;5.50;;;23.00;79.80;;;;;;5055424;28;20017;-75
2021/09/13 11:23:49;;;;;;;9.35;5.95;;;23.00;81.60;;;;;;5054578;28;20029;-73
2021/09/13 11:26:20;;;;;;;8.75;6.18;;;22.90;81.50;;;;;;5055399;28;20032;-73
2021/09/13 11:28:59;;;;;;;9.48;5.90;;;22.80;81.70;;;;;;5055009;28;20025;-74
2021/09/13 11:31:29;;;;;;;12.90;5.37;;;22.80;82.20;;;;;;5055583;28;20476;-74
2021/09/13 11:33:56;;;;;;;8.52;6.07;;;22.70;79.50;;;;;;5054896;28;20491;-75
2021/09/13 11:36:23;;;;;;;10.18;6.43;;;22.70;78.60;;;;;;5054906;28;20037;-75
2021/09/13 11:38:56;;;;;;;9.77;5.93;;;22.70;79.70;;;;;;5054816;28;20028;-75
2021/09/13 11:41:22;;;;;;;7.93;5.03;;;22.70;79.80;;;;;;5055102;28;20017;-74
2021/09/13 11:44:03;;;;;;;8.52;4.90;;;22.80;79.50;;;;;;5054892;28;20021;-74
2021/09/13 11:46:30;;;;;;;7.03;4.72;;;22.80;85.00;;;;;;5054703;28;20420;-75
2021/09/13 11:49:17;;;;;;;5.53;3.70;;;22.90;79.50;;;;;;5054675;28;20045;-73
2021/09/13 11:52:04;;;;;;;8.85;3.22;;;22.80;76.40;;;;;;5054922;28;20029;-75
2021/09/13 11:54:30;;;;;;;5.55;3.95;;;23.00;73.90;;;;;;5054545;28;20048;-75
2021/09/13 11:56:56;;;;;;;5.88;3.80;;;23.00;77.90;;;;;;5054491;28;20029;-74
2021/09/13 11:59:25;;;;;;;4.68;3.78;;;23.10;74.20;;;;;;5053962;28;20028;-73
2021/09/13 12:02:02;;;;;;;8.30;4.38;;;23.10;74.40;;;;;;5054406;28;20025;-75
2021/09/13 12:04:29;;;;;;;7.60;4.63;;;23.10;75.20;;;;;;5054635;28;20474;-75
2021/09/13 12:07:04;;;;;;;8.18;4.32;;;23.10;76.20;;;;;;5054093;28;20032;-74
2021/09/13 12:09:31;;;;;;;6.97;3.75;;;23.10;75.50;;;;;;5054547;28;20033;-74
2021/09/13 12:11:57;;;;;;;6.78;4.07;;;23.10;72.90;;;;;;5054194;28;20036;-75
2021/09/13 12:14:23;;;;;;;7.05;4.28;;;22.90;71.80;;;;;;5054920;28;20027;-80
2021/09/13 12:17:15;;;;;;;5.70;3.97;;;22.90;75.20;;;;;;5054053;28;20029;-75
2021/09/13 12:19:45;;;;;;;5.75;3.80;;;22.90;75.70;;;;;;5054540;28;20387;-79
2021/09/13 12:22:12;;;;;;;4.40;3.55;;;22.90;74.00;;;;;;5066754;28;20021;-76
2021/09/13 12:24:40;;;;;;;6.60;3.85;;;23.10;71.40;;;;;;5071549;28;20115;-74
2021/09/13 12:27:13;;;;;;;6.78;3.58;;;23.10;71.60;;;;;;5074185;28;20428;-74
2021/09/13 12:29:53;;;;;;;6.10;3.60;;;23.20;72.40;;;;;;5073858;28;20566;-77
2021/09/13 12:32:25;;;;;;;4.18;3.13;;;23.20;76.80;;;;;;5070686;28;20410;-77
2021/09/13 12:34:56;;;;;;;4.07;3.00;;;23.10;69.10;;;;;;5070670;28;20529;-78
2021/09/13 12:37:52;;;;;;;8.70;3.63;;;23.10;73.50;;;;;;5053708;28;20394;-80
2021/09/13 12:40:18;;;;;;;8.40;3.72;;;23.10;70.40;;;;;;5065805;28;20071;-83
2021/09/13 12:42:50;;;;;;;5.15;3.15;;;23.10;71.70;;;;;;5071666;28;20020;-78
2021/09/13 12:45:16;;;;;;;5.38;3.33;;;23.10;72.70;;;;;;5067433;28;20047;-78
2021/09/13 12:47:59;;;;;;;5.85;3.08;;;23.10;70.30;;;;;;5053366;28;20029;-72
2021/09/13 12:50:26;;;;;;;4.82;3.28;;;23.10;71.50;;;;;;5069586;28;20025;-74
2021/09/13 12:52:52;;;;;;;4.65;3.30;;;23.20;70.90;;;;;;5068290;28;20028;-74
2021/09/13 12:55:20;;;;;;;5.78;3.58;;;23.20;70.70;;;;;;5064490;28;20013;-78